sensor_id;sensor_type;location;lat;lon;timestamp;temperature;humidity
3268;DHT22;1646;52.450;13.326;2023-03-29T00:02:21;5.20;99.90
3268;DHT22;1646;52.450;13.326;2023-03-29T00:07:26;5.20;99.90
3268;DHT22;1646;52.450;13.326;2023-03-29T00:12:27;5.10;99.90
3268;DHT22;1646;52.450;13.326;2023-03-29T00:17:26;4.90;99.90
3268;DHT22;1646;52.450;13.326;2023-03-29T00:22:24;4.90;99.90
3268;DHT22;1646;52.450;13.326;2023-03-29T00:27:23;4.80;99.90
3268;DHT22;1646;52.450;13.326;2023-03-29T00:32:22;4.60;99.90
3268;DHT22;1646;52.450;13.326;2023-03-29T00:37:21;4.50;99.90
3268;DHT22;1646;52.450;13.326;2023-03-29T00:42:23;4.60;99.90
3268;DHT22;1646;52.450;13.326;2023-03-29T00:47:26;4.50;99.90
3268;DHT22;1646;52.450;13.326;2023-03-29T00:52:26;4.60;99.90
3268;DHT22;1646;52.450;13.326;2023-03-29T00:57:27;4.50;99.90
3268;DHT22;1646;52.450;13.326;2023-03-29T01:02:28;4.60;99.90
3268;DHT22;1646;52.450;13.326;2023-03-29T01:07:34;4.70;99.90
3268;DHT22;1646;52.450;13.326;2023-03-29T01:12:40;4.90;99.90
3268;DHT22;1646;52.450;13.326;2023-03-29T01:17:41;4.80;99.90
3268;DHT22;1646;52.450;13.326;2023-03-29T01:23:00;4.80;99.90
3268;DHT22;1646;52.450;13.326;2023-03-29T01:28:03;4.80;99.90
3268;DHT22;1646;52.450;13.326;2023-03-29T01:33:05;4.80;99.90
3268;DHT22;1646;52.450;13.326;2023-03-29T01:38:11;4.80;99.90
3268;DHT22;1646;52.450;13.326;2023-03-29T01:43:22;4.70;99.90
3268;DHT22;1646;52.450;13.326;2023-03-29T01:48:26;4.80;99.90
3268;DHT22;1646;52.450;13.326;2023-03-29T01:53:28;4.90;99.90
3268;DHT22;1646;52.450;13.326;2023-03-29T01:58:32;4.90;99.90
3268;DHT22;1646;52.450;13.326;2023-03-29T02:03:31;4.90;99.90
3268;DHT22;1646;52.450;13.326;2023-03-29T02:08:39;4.80;99.90
3268;DHT22;1646;52.450;13.326;2023-03-29T02:13:40;4.90;99.90
3268;DHT22;1646;52.450;13.326;2023-03-29T02:18:38;5.00;99.90
3268;DHT22;1646;52.450;13.326;2023-03-29T02:23:40;5.10;99.90
3268;DHT22;1646;52.450;13.326;2023-03-29T02:28:43;5.10;99.90
3268;DHT22;1646;52.450;13.326;2023-03-29T02:33:45;5.10;99.90
3268;DHT22;1646;52.450;13.326;2023-03-29T02:38:47;5.00;99.90
3268;DHT22;1646;52.450;13.326;2023-03-29T02:43:47;4.80;99.90
3268;DHT22;1646;52.450;13.326;2023-03-29T02:48:47;4.60;99.90
3268;DHT22;1646;52.450;13.326;2023-03-29T02:53:50;4.50;99.90
3268;DHT22;1646;52.450;13.326;2023-03-29T02:58:51;4.50;99.90
3268;DHT22;1646;52.450;13.326;2023-03-29T03:03:49;4.40;99.90
3268;DHT22;1646;52.450;13.326;2023-03-29T03:08:48;4.40;99.90
3268;DHT22;1646;52.450;13.326;2023-03-29T03:13:47;4.50;99.90
3268;DHT22;1646;52.450;13.326;2023-03-29T03:18:46;4.50;99.90
3268;DHT22;1646;52.450;13.326;2023-03-29T03:23:47;4.60;99.90
3268;DHT22;1646;52.450;13.326;2023-03-29T03:28:45;4.60;99.90
3268;DHT22;1646;52.450;13.326;2023-03-29T03:34:05;4.50;99.90
3268;DHT22;1646;52.450;13.326;2023-03-29T03:39:10;4.50;99.90
3268;DHT22;1646;52.450;13.326;2023-03-29T03:44:09;4.30;99.90
3268;DHT22;1646;52.450;13.326;2023-03-29T03:49:10;4.20;99.90
3268;DHT22;1646;52.450;13.326;2023-03-29T03:54:10;4.10;99.90
3268;DHT22;1646;52.450;13.326;2023-03-29T03:59:28;4.10;99.90
3268;DHT22;1646;52.450;13.326;2023-03-29T04:04:34;4.00;99.90
3268;DHT22;1646;52.450;13.326;2023-03-29T04:09:46;4.00;99.90
3268;DHT22;1646;52.450;13.326;2023-03-29T04:15:06;4.00;99.90
3268;DHT22;1646;52.450;13.326;2023-03-29T04:20:11;3.90;99.90
3268;DHT22;1646;52.450;13.326;2023-03-29T04:25:10;3.80;99.90
3268;DHT22;1646;52.450;13.326;2023-03-29T04:30:10;3.80;99.90
3268;DHT22;1646;52.450;13.326;2023-03-29T04:35:30;3.70;99.90
3268;DHT22;1646;52.450;13.326;2023-03-29T04:40:28;3.90;99.90
3268;DHT22;1646;52.450;13.326;2023-03-29T04:45:38;3.90;99.90
3268;DHT22;1646;52.450;13.326;2023-03-29T04:50:46;3.90;99.90
3268;DHT22;1646;52.450;13.326;2023-03-29T04:55:47;3.90;99.90
3268;DHT22;1646;52.450;13.326;2023-03-29T05:00:55;4.00;99.90
3268;DHT22;1646;52.450;13.326;2023-03-29T05:06:02;4.00;99.90
3268;DHT22;1646;52.450;13.326;2023-03-29T05:11:05;4.10;99.90
3268;DHT22;1646;52.450;13.326;2023-03-29T05:16:04;4.00;99.90
3268;DHT22;1646;52.450;13.326;2023-03-29T05:21:05;3.90;99.90
3268;DHT22;1646;52.450;13.326;2023-03-29T05:26:06;3.90;99.90
3268;DHT22;1646;52.450;13.326;2023-03-29T05:31:07;3.80;99.90
3268;DHT22;1646;52.450;13.326;2023-03-29T05:36:11;3.90;99.90
3268;DHT22;1646;52.450;13.326;2023-03-29T05:41:15;4.10;99.90
3268;DHT22;1646;52.450;13.326;2023-03-29T05:46:40;4.10;99.90
3268;DHT22;1646;52.450;13.326;2023-03-29T05:51:44;4.20;99.90
3268;DHT22;1646;52.450;13.326;2023-03-29T05:56:44;4.30;99.90
3268;DHT22;1646;52.450;13.326;2023-03-29T06:01:44;4.40;99.90
3268;DHT22;1646;52.450;13.326;2023-03-29T06:06:49;4.40;99.90
3268;DHT22;1646;52.450;13.326;2023-03-29T06:11:49;4.60;99.90
3268;DHT22;1646;52.450;13.326;2023-03-29T06:16:57;4.60;99.90
3268;DHT22;1646;52.450;13.326;2023-03-29T06:21:56;4.70;99.90
3268;DHT22;1646;52.450;13.326;2023-03-29T06:26:57;4.90;99.90
3268;DHT22;1646;52.450;13.326;2023-03-29T06:31:55;5.10;99.90
3268;DHT22;1646;52.450;13.326;2023-03-29T06:37:31;5.10;99.90
3268;DHT22;1646;52.450;13.326;2023-03-29T06:42:44;4.90;99.90
3268;DHT22;1646;52.450;13.326;2023-03-29T06:48:09;4.80;99.90
3268;DHT22;1646;52.450;13.326;2023-03-29T06:53:11;4.60;99.90
3268;DHT22;1646;52.450;13.326;2023-03-29T06:58:11;4.70;99.90
3268;DHT22;1646;52.450;13.326;2023-03-29T07:03:10;4.90;99.90
3268;DHT22;1646;52.450;13.326;2023-03-29T07:08:20;5.20;99.90
3268;DHT22;1646;52.450;13.326;2023-03-29T07:13:31;5.50;99.90
3268;DHT22;1646;52.450;13.326;2023-03-29T07:18:32;5.70;99.90
3268;DHT22;1646;52.450;13.326;2023-03-29T07:23:33;5.70;99.90
3268;DHT22;1646;52.450;13.326;2023-03-29T07:28:32;5.70;99.90
3268;DHT22;1646;52.450;13.326;2023-03-29T07:33:30;5.80;99.90
3268;DHT22;1646;52.450;13.326;2023-03-29T07:38:34;6.00;99.90
3268;DHT22;1646;52.450;13.326;2023-03-29T07:43:39;6.30;99.90
3268;DHT22;1646;52.450;13.326;2023-03-29T07:48:38;6.70;99.90
3268;DHT22;1646;52.450;13.326;2023-03-29T07:53:41;7.00;99.90
3268;DHT22;1646;52.450;13.326;2023-03-29T07:59:02;7.00;99.90
3268;DHT22;1646;52.450;13.326;2023-03-29T08:04:01;7.20;99.90
3268;DHT22;1646;52.450;13.326;2023-03-29T08:09:40;7.30;99.90
3268;DHT22;1646;52.450;13.326;2023-03-29T08:14:39;7.50;99.90
3268;DHT22;1646;52.450;13.326;2023-03-29T08:20:01;7.90;99.90
3268;DHT22;1646;52.450;13.326;2023-03-29T08:25:02;8.40;99.90
3268;DHT22;1646;52.450;13.326;2023-03-29T08:30:07;8.60;99.90
3268;DHT22;1646;52.450;13.326;2023-03-29T08:35:08;8.60;99.90
3268;DHT22;1646;52.450;13.326;2023-03-29T08:40:19;8.80;99.90
3268;DHT22;1646;52.450;13.326;2023-03-29T08:45:50;9.00;99.90
3268;DHT22;1646;52.450;13.326;2023-03-29T08:50:58;9.10;99.90
3268;DHT22;1646;52.450;13.326;2023-03-29T08:56:03;9.40;99.90
3268;DHT22;1646;52.450;13.326;2023-03-29T09:01:35;10.00;99.90
3268;DHT22;1646;52.450;13.326;2023-03-29T09:06:34;10.80;99.90
3268;DHT22;1646;52.450;13.326;2023-03-29T09:11:59;11.50;99.90
3268;DHT22;1646;52.450;13.326;2023-03-29T09:17:09;12.30;99.90
3268;DHT22;1646;52.450;13.326;2023-03-29T09:22:17;12.60;99.90
3268;DHT22;1646;52.450;13.326;2023-03-29T09:27:25;12.30;99.90
3268;DHT22;1646;52.450;13.326;2023-03-29T09:32:43;13.00;99.90
3268;DHT22;1646;52.450;13.326;2023-03-29T09:37:45;13.50;99.90
3268;DHT22;1646;52.450;13.326;2023-03-29T09:42:48;13.90;99.90
3268;DHT22;1646;52.450;13.326;2023-03-29T09:47:50;14.80;99.90
3268;DHT22;1646;52.450;13.326;2023-03-29T09:52:51;15.60;98.80
3268;DHT22;1646;52.450;13.326;2023-03-29T09:57:55;15.20;98.00
3268;DHT22;1646;52.450;13.326;2023-03-29T10:02:57;14.90;98.00
3268;DHT22;1646;52.450;13.326;2023-03-29T10:08:14;15.60;97.40
3268;DHT22;1646;52.450;13.326;2023-03-29T10:13:20;15.30;97.20
3268;DHT22;1646;52.450;13.326;2023-03-29T10:18:19;16.20;96.50
3268;DHT22;1646;52.450;13.326;2023-03-29T10:23:18;18.10;94.70
3268;DHT22;1646;52.450;13.326;2023-03-29T10:28:19;16.30;91.70
3268;DHT22;1646;52.450;13.326;2023-03-29T10:33:21;15.80;95.10
3268;DHT22;1646;52.450;13.326;2023-03-29T10:38:23;17.10;93.40
3268;DHT22;1646;52.450;13.326;2023-03-29T10:43:27;17.00;91.40
3268;DHT22;1646;52.450;13.326;2023-03-29T10:48:29;15.60;92.90
3268;DHT22;1646;52.450;13.326;2023-03-29T10:53:29;15.20;94.50
3268;DHT22;1646;52.450;13.326;2023-03-29T10:58:38;15.00;94.50
3268;DHT22;1646;52.450;13.326;2023-03-29T11:04:03;13.60;95.00
3268;DHT22;1646;52.450;13.326;2023-03-29T11:09:07;13.00;96.60
3268;DHT22;1646;52.450;13.326;2023-03-29T11:14:23;13.10;97.70
3268;DHT22;1646;52.450;13.326;2023-03-29T11:19:38;12.90;98.30
3268;DHT22;1646;52.450;13.326;2023-03-29T11:24:52;12.60;98.80
3268;DHT22;1646;52.450;13.326;2023-03-29T11:30:02;12.30;99.90
3268;DHT22;1646;52.450;13.326;2023-03-29T11:35:11;12.40;99.90
3268;DHT22;1646;52.450;13.326;2023-03-29T11:40:26;12.30;99.90
3268;DHT22;1646;52.450;13.326;2023-03-29T11:45:30;12.30;99.90
3268;DHT22;1646;52.450;13.326;2023-03-29T11:50:34;13.10;99.90
3268;DHT22;1646;52.450;13.326;2023-03-29T11:55:35;12.90;99.90
3268;DHT22;1646;52.450;13.326;2023-03-29T12:00:37;12.90;99.90
3268;DHT22;1646;52.450;13.326;2023-03-29T12:05:41;13.10;99.90
3268;DHT22;1646;52.450;13.326;2023-03-29T12:10:44;13.20;99.20
3268;DHT22;1646;52.450;13.326;2023-03-29T12:15:49;12.50;99.00
3268;DHT22;1646;52.450;13.326;2023-03-29T12:20:54;12.20;99.90
3268;DHT22;1646;52.450;13.326;2023-03-29T12:26:02;12.10;99.90
3268;DHT22;1646;52.450;13.326;2023-03-29T12:31:09;11.80;99.90
3268;DHT22;1646;52.450;13.326;2023-03-29T12:36:29;11.70;99.90
3268;DHT22;1646;52.450;13.326;2023-03-29T12:41:51;11.80;99.90
3268;DHT22;1646;52.450;13.326;2023-03-29T12:47:18;11.80;99.90
3268;DHT22;1646;52.450;13.326;2023-03-29T12:52:23;11.80;99.90
3268;DHT22;1646;52.450;13.326;2023-03-29T12:57:26;11.90;99.90
3268;DHT22;1646;52.450;13.326;2023-03-29T13:02:34;12.10;99.90
3268;DHT22;1646;52.450;13.326;2023-03-29T13:07:45;12.10;99.90
3268;DHT22;1646;52.450;13.326;2023-03-29T13:12:44;12.40;99.90
3268;DHT22;1646;52.450;13.326;2023-03-29T13:17:50;12.60;99.90
3268;DHT22;1646;52.450;13.326;2023-03-29T13:23:03;12.40;99.90
3268;DHT22;1646;52.450;13.326;2023-03-29T13:28:11;12.30;99.90
3268;DHT22;1646;52.450;13.326;2023-03-29T13:33:31;12.10;99.90
3268;DHT22;1646;52.450;13.326;2023-03-29T13:38:43;12.10;99.90
3268;DHT22;1646;52.450;13.326;2023-03-29T13:43:51;12.20;99.90
3268;DHT22;1646;52.450;13.326;2023-03-29T13:48:56;11.90;99.90
3268;DHT22;1646;52.450;13.326;2023-03-29T13:53:58;11.60;99.90
3268;DHT22;1646;52.450;13.326;2023-03-29T13:59:03;11.80;99.90
3268;DHT22;1646;52.450;13.326;2023-03-29T14:04:05;11.90;99.90
3268;DHT22;1646;52.450;13.326;2023-03-29T14:09:07;11.90;99.90
3268;DHT22;1646;52.450;13.326;2023-03-29T14:14:06;11.90;99.90
3268;DHT22;1646;52.450;13.326;2023-03-29T14:19:12;12.00;99.90
3268;DHT22;1646;52.450;13.326;2023-03-29T14:24:15;11.90;99.90
3268;DHT22;1646;52.450;13.326;2023-03-29T14:29:14;11.80;99.90
3268;DHT22;1646;52.450;13.326;2023-03-29T14:34:17;11.80;99.90
3268;DHT22;1646;52.450;13.326;2023-03-29T14:39:17;11.70;99.90
3268;DHT22;1646;52.450;13.326;2023-03-29T14:44:17;11.70;99.90
3268;DHT22;1646;52.450;13.326;2023-03-29T14:49:19;11.80;99.90
3268;DHT22;1646;52.450;13.326;2023-03-29T14:54:21;11.80;99.90
3268;DHT22;1646;52.450;13.326;2023-03-29T14:59:31;11.70;99.90
3268;DHT22;1646;52.450;13.326;2023-03-29T15:04:34;11.80;99.90
3268;DHT22;1646;52.450;13.326;2023-03-29T15:09:33;11.70;99.90
3268;DHT22;1646;52.450;13.326;2023-03-29T15:14:34;11.70;99.90
3268;DHT22;1646;52.450;13.326;2023-03-29T15:19:35;11.80;99.90
3268;DHT22;1646;52.450;13.326;2023-03-29T15:24:33;11.70;99.90
3268;DHT22;1646;52.450;13.326;2023-03-29T15:29:40;11.70;99.90
3268;DHT22;1646;52.450;13.326;2023-03-29T15:34:40;11.90;99.90
3268;DHT22;1646;52.450;13.326;2023-03-29T15:39:41;11.70;99.90
3268;DHT22;1646;52.450;13.326;2023-03-29T15:44:42;11.90;99.90
3268;DHT22;1646;52.450;13.326;2023-03-29T15:49:41;12.00;99.90
3268;DHT22;1646;52.450;13.326;2023-03-29T15:54:40;12.00;99.90
3268;DHT22;1646;52.450;13.326;2023-03-29T15:59:39;12.10;99.90
3268;DHT22;1646;52.450;13.326;2023-03-29T16:04:38;12.20;99.90
3268;DHT22;1646;52.450;13.326;2023-03-29T16:09:38;12.30;99.90
3268;DHT22;1646;52.450;13.326;2023-03-29T16:14:37;12.20;99.90
3268;DHT22;1646;52.450;13.326;2023-03-29T16:19:35;12.10;99.90
3268;DHT22;1646;52.450;13.326;2023-03-29T16:24:34;12.00;99.90
3268;DHT22;1646;52.450;13.326;2023-03-29T16:29:34;12.00;99.90
3268;DHT22;1646;52.450;13.326;2023-03-29T16:34:32;12.10;99.90
3268;DHT22;1646;52.450;13.326;2023-03-29T16:39:32;12.10;99.90
3268;DHT22;1646;52.450;13.326;2023-03-29T16:44:30;12.10;99.90
3268;DHT22;1646;52.450;13.326;2023-03-29T16:49:29;12.00;99.90
3268;DHT22;1646;52.450;13.326;2023-03-29T16:54:28;12.00;99.90
3268;DHT22;1646;52.450;13.326;2023-03-29T16:59:28;12.00;99.90
3268;DHT22;1646;52.450;13.326;2023-03-29T17:04:26;12.00;99.90
3268;DHT22;1646;52.450;13.326;2023-03-29T17:09:26;12.10;99.90
3268;DHT22;1646;52.450;13.326;2023-03-29T17:14:26;12.20;99.90
3268;DHT22;1646;52.450;13.326;2023-03-29T17:19:25;12.10;99.90
3268;DHT22;1646;52.450;13.326;2023-03-29T17:24:23;12.10;99.90
3268;DHT22;1646;52.450;13.326;2023-03-29T17:29:23;12.00;99.90
3268;DHT22;1646;52.450;13.326;2023-03-29T17:34:21;12.10;99.90
3268;DHT22;1646;52.450;13.326;2023-03-29T17:39:20;12.10;99.90
3268;DHT22;1646;52.450;13.326;2023-03-29T17:44:22;12.10;99.90
3268;DHT22;1646;52.450;13.326;2023-03-29T17:49:20;12.10;99.90
3268;DHT22;1646;52.450;13.326;2023-03-29T17:54:19;12.10;99.90
3268;DHT22;1646;52.450;13.326;2023-03-29T17:59:17;12.00;99.90
3268;DHT22;1646;52.450;13.326;2023-03-29T18:04:17;12.10;99.90
3268;DHT22;1646;52.450;13.326;2023-03-29T18:09:15;12.10;99.90
3268;DHT22;1646;52.450;13.326;2023-03-29T18:14:13;12.00;99.90
3268;DHT22;1646;52.450;13.326;2023-03-29T18:19:12;12.00;99.90
3268;DHT22;1646;52.450;13.326;2023-03-29T18:24:11;12.00;99.90
3268;DHT22;1646;52.450;13.326;2023-03-29T18:29:10;12.00;99.90
3268;DHT22;1646;52.450;13.326;2023-03-29T18:34:08;12.00;99.90
3268;DHT22;1646;52.450;13.326;2023-03-29T18:39:06;12.00;99.90
3268;DHT22;1646;52.450;13.326;2023-03-29T18:44:11;11.90;99.90
3268;DHT22;1646;52.450;13.326;2023-03-29T18:49:22;11.90;99.90
3268;DHT22;1646;52.450;13.326;2023-03-29T18:54:20;11.70;99.90
3268;DHT22;1646;52.450;13.326;2023-03-29T18:59:20;11.80;99.90
3268;DHT22;1646;52.450;13.326;2023-03-29T19:04:18;11.70;99.90
3268;DHT22;1646;52.450;13.326;2023-03-29T19:09:17;11.70;99.90
3268;DHT22;1646;52.450;13.326;2023-03-29T19:14:16;11.60;99.90
3268;DHT22;1646;52.450;13.326;2023-03-29T19:19:21;11.60;99.90
3268;DHT22;1646;52.450;13.326;2023-03-29T19:24:22;11.60;99.90
3268;DHT22;1646;52.450;13.326;2023-03-29T19:29:20;11.60;99.90
3268;DHT22;1646;52.450;13.326;2023-03-29T19:34:20;11.60;99.90
3268;DHT22;1646;52.450;13.326;2023-03-29T19:39:20;11.60;99.90
3268;DHT22;1646;52.450;13.326;2023-03-29T19:44:18;11.50;99.90
3268;DHT22;1646;52.450;13.326;2023-03-29T19:49:20;11.50;99.90
3268;DHT22;1646;52.450;13.326;2023-03-29T19:54:19;11.50;99.90
3268;DHT22;1646;52.450;13.326;2023-03-29T19:59:17;11.60;99.90
3268;DHT22;1646;52.450;13.326;2023-03-29T20:04:16;11.70;99.90
3268;DHT22;1646;52.450;13.326;2023-03-29T20:09:16;11.60;99.90
3268;DHT22;1646;52.450;13.326;2023-03-29T20:14:14;11.60;99.90
3268;DHT22;1646;52.450;13.326;2023-03-29T20:19:13;11.60;99.90
3268;DHT22;1646;52.450;13.326;2023-03-29T20:24:13;11.60;99.90
3268;DHT22;1646;52.450;13.326;2023-03-29T20:29:14;11.60;99.90
3268;DHT22;1646;52.450;13.326;2023-03-29T20:34:12;11.70;99.90
3268;DHT22;1646;52.450;13.326;2023-03-29T20:39:11;11.60;99.90
3268;DHT22;1646;52.450;13.326;2023-03-29T20:44:15;11.50;99.90
3268;DHT22;1646;52.450;13.326;2023-03-29T20:49:14;11.50;99.90
3268;DHT22;1646;52.450;13.326;2023-03-29T20:54:13;11.30;99.90
3268;DHT22;1646;52.450;13.326;2023-03-29T20:59:12;11.20;99.90
3268;DHT22;1646;52.450;13.326;2023-03-29T21:04:11;11.30;99.90
3268;DHT22;1646;52.450;13.326;2023-03-29T21:09:10;11.30;99.90
3268;DHT22;1646;52.450;13.326;2023-03-29T21:14:09;11.30;99.90
3268;DHT22;1646;52.450;13.326;2023-03-29T21:19:07;11.40;99.90
3268;DHT22;1646;52.450;13.326;2023-03-29T21:24:08;11.40;99.90
3268;DHT22;1646;52.450;13.326;2023-03-29T21:29:09;11.50;99.90
3268;DHT22;1646;52.450;13.326;2023-03-29T21:34:07;11.40;99.90
3268;DHT22;1646;52.450;13.326;2023-03-29T21:39:07;11.20;99.90
3268;DHT22;1646;52.450;13.326;2023-03-29T21:44:05;11.20;99.90
3268;DHT22;1646;52.450;13.326;2023-03-29T21:49:04;11.10;99.90
3268;DHT22;1646;52.450;13.326;2023-03-29T21:54:02;11.10;99.90
3268;DHT22;1646;52.450;13.326;2023-03-29T21:59:02;11.10;99.90
3268;DHT22;1646;52.450;13.326;2023-03-29T22:04:00;11.10;99.90
3268;DHT22;1646;52.450;13.326;2023-03-29T22:08:59;11.30;99.90
3268;DHT22;1646;52.450;13.326;2023-03-29T22:13:59;11.20;99.90
3268;DHT22;1646;52.450;13.326;2023-03-29T22:18:58;11.20;99.90
3268;DHT22;1646;52.450;13.326;2023-03-29T22:23:57;11.20;99.90
3268;DHT22;1646;52.450;13.326;2023-03-29T22:28:57;11.20;99.90
3268;DHT22;1646;52.450;13.326;2023-03-29T22:33:57;11.20;99.90
3268;DHT22;1646;52.450;13.326;2023-03-29T22:38:57;11.20;99.90
3268;DHT22;1646;52.450;13.326;2023-03-29T22:43:57;11.10;99.90
3268;DHT22;1646;52.450;13.326;2023-03-29T22:48:58;11.10;99.90
3268;DHT22;1646;52.450;13.326;2023-03-29T22:53:56;11.20;99.90
3268;DHT22;1646;52.450;13.326;2023-03-29T22:58:55;11.10;99.90
3268;DHT22;1646;52.450;13.326;2023-03-29T23:03:53;10.90;99.90
3268;DHT22;1646;52.450;13.326;2023-03-29T23:08:53;10.90;99.90
3268;DHT22;1646;52.450;13.326;2023-03-29T23:13:51;10.90;99.90
3268;DHT22;1646;52.450;13.326;2023-03-29T23:18:50;11.00;99.90
3268;DHT22;1646;52.450;13.326;2023-03-29T23:23:48;11.10;99.90
3268;DHT22;1646;52.450;13.326;2023-03-29T23:28:47;11.20;99.90
3268;DHT22;1646;52.450;13.326;2023-03-29T23:33:47;11.30;99.90
3268;DHT22;1646;52.450;13.326;2023-03-29T23:38:45;11.40;99.90
3268;DHT22;1646;52.450;13.326;2023-03-29T23:43:44;11.30;99.90
3268;DHT22;1646;52.450;13.326;2023-03-29T23:48:45;11.30;99.90
3268;DHT22;1646;52.450;13.326;2023-03-29T23:53:44;11.30;99.90
3268;DHT22;1646;52.450;13.326;2023-03-29T23:58:43;11.30;99.90
